createdAt,value
2022-09-10T00:03:38.378Z,3.85
2022-09-10T00:06:10.610Z,4.43
2022-09-10T00:08:39.694Z,4.30
2022-09-10T00:11:10.023Z,4.05
2022-09-10T00:13:41.365Z,4.55
2022-09-10T00:16:11.697Z,4.97
2022-09-10T00:18:40.614Z,5.30
2022-09-10T00:21:12.494Z,4.90
2022-09-10T00:23:46.292Z,5.63
2022-09-10T00:26:40.707Z,6.10
2022-09-10T00:29:14.381Z,7.10
2022-09-10T00:31:43.369Z,6.75
2022-09-10T00:34:13.413Z,7.50
2022-09-10T00:36:44.124Z,8.27
2022-09-10T00:39:15.492Z,7.10
2022-09-10T00:41:46.451Z,8.25
2022-09-10T00:44:42.236Z,8.23
2022-09-10T00:47:27.785Z,7.78
2022-09-10T00:50:03.590Z,8.93
2022-09-10T00:52:35.371Z,9.50
2022-09-10T00:55:05.829Z,10.30
2022-09-10T00:57:33.455Z,10.27
2022-09-10T01:00:07.046Z,10.20
2022-09-10T01:02:34.776Z,10.48
2022-09-10T01:05:06.058Z,10.40
2022-09-10T01:07:34.374Z,10.43
2022-09-10T01:10:06.879Z,11.65
2022-09-10T01:12:52.933Z,10.85
2022-09-10T01:15:40.641Z,10.82
2022-09-10T01:18:17.365Z,10.73
2022-09-10T01:21:02.689Z,10.25
2022-09-10T01:23:32.982Z,10.60
2022-09-10T01:26:21.972Z,10.57
2022-09-10T01:29:08.953Z,10.75
2022-09-10T01:31:51.647Z,10.32
2022-09-10T01:34:27.275Z,9.82
2022-09-10T01:37:08.289Z,9.80
2022-09-10T01:39:37.638Z,9.13
2022-09-10T01:42:05.406Z,10.30
2022-09-10T01:44:43.145Z,9.93
2022-09-10T01:47:34.624Z,11.13
2022-09-10T01:50:32.154Z,10.50
2022-09-10T01:53:01.336Z,10.80
2022-09-10T01:55:32.970Z,11.10
2022-09-10T01:58:42.178Z,10.60
2022-09-10T02:01:45.186Z,11.25
2022-09-10T02:04:14.964Z,11.13
2022-09-10T02:06:48.412Z,11.50
2022-09-10T02:09:18.525Z,12.30
2022-09-10T02:11:56.358Z,12.33
2022-09-10T02:15:08.669Z,13.10
2022-09-10T02:17:49.917Z,13.05
2022-09-10T02:20:19.892Z,13.23
2022-09-10T02:22:57.023Z,13.80
2022-09-10T02:25:28.598Z,14.73
2022-09-10T02:28:02.848Z,14.60
2022-09-10T02:30:33.987Z,15.52
2022-09-10T02:33:06.338Z,14.93
2022-09-10T02:35:34.895Z,16.40
2022-09-10T02:38:05.964Z,15.40
2022-09-10T02:40:39.569Z,15.55
2022-09-10T02:43:10.137Z,15.60
2022-09-10T02:46:09.623Z,15.65
2022-09-10T02:48:43.609Z,15.82
2022-09-10T02:51:12.267Z,16.10
2022-09-10T02:53:51.905Z,15.52
2022-09-10T02:56:20.804Z,15.35
2022-09-10T02:58:49.514Z,14.75
2022-09-10T03:01:20.331Z,14.75
2022-09-10T03:03:59.583Z,14.55
2022-09-10T03:06:27.897Z,15.40
2022-09-10T03:08:58.179Z,13.95
2022-09-10T03:11:27.768Z,14.25
2022-09-10T03:13:58.088Z,14.98
2022-09-10T03:16:26.196Z,13.50
2022-09-10T03:18:55.936Z,15.30
2022-09-10T03:21:27.839Z,14.57
2022-09-10T03:23:58.178Z,13.32
2022-09-10T03:26:34.584Z,14.60
2022-09-10T03:29:04.951Z,13.68
2022-09-10T03:31:39.964Z,14.43
2022-09-10T03:34:08.390Z,13.88
2022-09-10T03:36:35.713Z,13.93
2022-09-10T03:39:05.672Z,13.52
2022-09-10T03:41:37.181Z,14.93
2022-09-10T03:44:05.866Z,14.90
2022-09-10T03:46:33.014Z,14.32
2022-09-10T03:49:05.409Z,12.77
2022-09-10T03:51:34.342Z,14.73
2022-09-10T03:54:06.587Z,15.07
2022-09-10T03:56:34.339Z,13.50
2022-09-10T03:59:04.625Z,12.80
2022-09-10T04:01:33.254Z,13.00
2022-09-10T04:04:03.643Z,13.55
2022-09-10T04:06:33.299Z,14.20
2022-09-10T04:09:03.039Z,15.40
2022-09-10T04:11:31.249Z,13.82
2022-09-10T04:14:03.617Z,14.20
2022-09-10T04:16:32.719Z,14.18
2022-09-10T04:19:07.044Z,14.55
2022-09-10T04:21:36.013Z,14.63
2022-09-10T04:24:10.023Z,13.90
2022-09-10T04:26:38.347Z,13.45
2022-09-10T04:29:07.278Z,13.88
2022-09-10T04:31:35.099Z,13.75
2022-09-10T04:34:12.666Z,13.82
2022-09-10T04:36:40.134Z,14.05
2022-09-10T04:39:09.135Z,14.60
2022-09-10T04:41:37.742Z,13.80
2022-09-10T04:44:06.941Z,13.70
2022-09-10T04:46:41.474Z,13.65
2022-09-10T04:49:17.008Z,13.43
2022-09-10T04:51:45.100Z,15.20
2022-09-10T04:54:14.529Z,14.35
2022-09-10T04:56:48.084Z,14.32
2022-09-10T04:59:15.428Z,14.07
2022-09-10T05:01:44.988Z,14.98
2022-09-10T05:04:18.718Z,14.45
2022-09-10T05:06:50.397Z,15.57
2022-09-10T05:09:18.287Z,15.35
2022-09-10T05:11:49.891Z,15.18
2022-09-10T05:14:21.666Z,14.93
2022-09-10T05:16:49.196Z,14.52
2022-09-10T05:19:18.073Z,15.57
2022-09-10T05:22:03.251Z,15.25
2022-09-10T05:24:36.678Z,15.48
2022-09-10T05:27:06.897Z,15.25
2022-09-10T05:29:35.648Z,15.48
2022-09-10T05:32:03.835Z,15.02
2022-09-10T05:34:32.068Z,16.63
2022-09-10T05:37:03.632Z,16.05
2022-09-10T05:39:31.046Z,15.77
2022-09-10T05:42:05.105Z,15.25
2022-09-10T05:44:35.352Z,15.73
2022-09-10T05:47:04.002Z,14.57
2022-09-10T05:49:35.354Z,15.02
2022-09-10T05:52:03.391Z,16.27
2022-09-10T05:54:31.375Z,15.55
2022-09-10T05:56:59.597Z,14.90
2022-09-10T05:59:28.907Z,15.68
2022-09-10T06:01:56.505Z,16.45
2022-09-10T06:04:25.361Z,16.00
2022-09-10T06:07:03.173Z,17.48
2022-09-10T06:09:32.957Z,16.75
2022-09-10T06:12:06.848Z,17.92
2022-09-10T06:14:35.632Z,17.50
2022-09-10T06:17:11.400Z,17.67
2022-09-10T06:19:41.314Z,17.27
2022-09-10T06:22:11.242Z,17.95
2022-09-10T06:24:41.129Z,18.20
2022-09-10T06:27:10.018Z,18.73
2022-09-10T06:29:39.952Z,17.67
2022-09-10T06:32:13.141Z,18.40
2022-09-10T06:34:41.792Z,19.13
2022-09-10T06:37:11.174Z,18.15
2022-09-10T06:39:50.221Z,19.13
2022-09-10T06:42:51.116Z,18.70
2022-09-10T06:45:24.808Z,18.42
2022-09-10T06:48:49.802Z,19.97
2022-09-10T06:51:22.325Z,19.17
2022-09-10T06:53:52.830Z,19.42
2022-09-10T06:56:23.571Z,18.83
2022-09-10T06:58:53.405Z,19.50
2022-09-10T07:01:24.008Z,19.55
2022-09-10T07:03:58.375Z,18.90
2022-09-10T07:06:33.738Z,20.35
2022-09-10T07:09:19.928Z,21.20
2022-09-10T07:11:57.584Z,20.75
2022-09-10T07:14:26.091Z,19.80
2022-09-10T07:16:57.837Z,20.52
2022-09-10T07:19:32.561Z,20.02
2022-09-10T07:22:03.642Z,20.58
2022-09-10T07:24:33.691Z,20.85
2022-09-10T07:27:15.723Z,19.55
2022-09-10T07:29:44.412Z,20.55
2022-09-10T07:32:15.648Z,20.35
2022-09-10T07:34:43.309Z,21.92
2022-09-10T07:37:15.766Z,20.98
2022-09-10T07:39:44.445Z,19.95
2022-09-10T07:42:13.043Z,21.45
2022-09-10T07:44:41.283Z,21.52
2022-09-10T07:47:08.614Z,20.48
2022-09-10T07:49:36.069Z,20.95
2022-09-10T07:52:05.013Z,20.48
2022-09-10T07:54:41.417Z,21.13
2022-09-10T07:57:09.907Z,20.55
2022-09-10T07:59:46.260Z,20.67
2022-09-10T08:02:18.592Z,20.85
2022-09-10T08:04:56.417Z,20.48
2022-09-10T08:07:24.598Z,19.83
2022-09-10T08:09:52.009Z,20.17
2022-09-10T08:12:20.490Z,21.15
2022-09-10T08:14:51.431Z,21.27
2022-09-10T08:17:20.116Z,19.75
2022-09-10T08:19:50.808Z,19.40
2022-09-10T08:22:18.471Z,19.90
2022-09-10T08:24:54.051Z,19.17
2022-09-10T08:29:55.062Z,20.00
2022-09-10T08:32:23.330Z,21.02
2022-09-10T08:34:55.515Z,20.58
2022-09-10T08:37:23.087Z,21.48
2022-09-10T08:39:56.436Z,20.98
2022-09-10T08:42:50.773Z,20.52
2022-09-10T08:45:33.151Z,24.20
2022-09-10T08:48:41.007Z,24.40
2022-09-10T08:51:31.403Z,26.55
2022-09-10T08:54:04.106Z,28.00
2022-09-10T08:56:34.841Z,28.08
2022-09-10T09:02:03.215Z,28.05
2022-09-10T09:05:03.670Z,26.33
2022-09-10T09:07:40.899Z,26.02
2022-09-10T09:10:37.267Z,25.83
2022-09-10T09:13:39.101Z,26.45
2022-09-10T09:16:38.946Z,26.35
2022-09-10T09:19:47.327Z,25.15
2022-09-10T09:22:19.498Z,27.13
2022-09-10T09:25:03.343Z,26.65
2022-09-10T09:27:36.920Z,26.80
2022-09-10T09:30:19.832Z,27.55
2022-09-10T09:32:50.961Z,27.17
2022-09-10T09:35:31.393Z,25.67
2022-09-10T09:38:24.005Z,23.13
2022-09-10T09:41:04.919Z,21.83
2022-09-10T09:43:46.740Z,20.52
2022-09-10T09:46:17.939Z,20.92
2022-09-10T09:48:56.742Z,20.92
2022-09-10T09:51:27.192Z,20.80
2022-09-10T09:54:39.433Z,19.33
2022-09-10T09:57:02.841Z,18.30
2022-09-10T09:59:35.053Z,17.00
2022-09-10T10:05:26.991Z,15.55
2022-09-10T10:07:54.531Z,12.65
2022-09-10T10:10:28.317Z,9.82
2022-09-10T10:12:56.425Z,9.93
2022-09-10T10:15:39.058Z,8.60
2022-09-10T10:18:33.162Z,8.57
2022-09-10T10:21:33.111Z,9.27
2022-09-10T10:24:03.959Z,10.45
2022-09-10T10:26:35.167Z,10.68
2022-09-10T10:29:19.804Z,11.00
2022-09-10T10:31:49.768Z,10.85
2022-09-10T10:34:56.354Z,10.68
2022-09-10T10:37:50.467Z,11.52
2022-09-10T10:40:28.687Z,12.20
2022-09-10T10:43:07.760Z,11.85
2022-09-10T10:45:37.773Z,11.93
2022-09-10T10:48:13.082Z,11.77
2022-09-10T10:51:04.367Z,11.80
2022-09-10T10:53:53.292Z,12.32
2022-09-10T10:56:56.344Z,12.27
2022-09-10T10:59:36.565Z,12.90
2022-09-10T11:02:14.301Z,13.48
2022-09-10T11:04:50.535Z,11.00
2022-09-10T11:07:41.200Z,11.50
2022-09-10T11:13:22.224Z,12.40
2022-09-10T11:16:05.219Z,11.32
2022-09-10T11:18:48.864Z,11.38
2022-09-10T11:21:44.268Z,10.45
2022-09-10T11:24:16.979Z,9.10
2022-09-10T11:26:51.360Z,9.32
2022-09-10T11:30:10.607Z,7.72
2022-09-10T11:33:02.353Z,8.18
2022-09-10T11:35:37.913Z,7.88
2022-09-10T11:38:42.192Z,8.50
2022-09-10T11:41:32.905Z,8.32
2022-09-10T11:44:16.742Z,8.45
2022-09-10T11:47:09.802Z,9.00
2022-09-10T11:50:02.323Z,8.85
2022-09-10T11:52:35.074Z,9.73
2022-09-10T11:55:09.223Z,9.43
2022-09-10T11:58:05.924Z,9.85
2022-09-10T12:00:42.370Z,9.70
2022-09-10T12:03:10.758Z,12.35
2022-09-10T12:05:50.711Z,12.50
2022-09-10T12:08:56.072Z,12.65
2022-09-10T12:11:40.909Z,13.23
2022-09-10T12:14:17.945Z,14.73
2022-09-10T12:16:48.102Z,17.13
2022-09-10T12:19:35.076Z,16.30
2022-09-10T12:22:17.452Z,15.65
2022-09-10T12:24:56.582Z,15.35
2022-09-10T12:27:45.428Z,16.42
2022-09-10T12:30:25.229Z,15.98
2022-09-10T12:33:01.502Z,16.92
2022-09-10T12:35:35.911Z,17.50
2022-09-10T12:38:40.695Z,16.75
2022-09-10T12:41:32.771Z,15.77
2022-09-10T12:44:25.328Z,16.50
2022-09-10T12:47:17.822Z,18.58
2022-09-10T12:49:51.118Z,18.58
2022-09-10T12:52:46.457Z,16.75
2022-09-10T12:55:51.818Z,18.17
2022-09-10T12:58:36.838Z,18.15
2022-09-10T13:01:22.294Z,18.00
2022-09-10T13:03:57.637Z,15.90
2022-09-10T13:06:43.154Z,15.50
2022-09-10T13:09:36.898Z,12.18
2022-09-10T13:12:18.601Z,11.98
2022-09-10T13:14:53.821Z,6.07
2022-09-10T13:17:41.245Z,2.83
2022-09-10T13:20:23.353Z,2.00
2022-09-10T13:22:56.388Z,2.03
2022-09-10T13:25:37.851Z,2.00
2022-09-10T13:28:31.493Z,1.90
2022-09-10T13:31:17.299Z,1.85
2022-09-10T13:33:53.800Z,2.28
2022-09-10T13:36:26.482Z,3.03
2022-09-10T13:39:07.399Z,3.20
2022-09-10T13:42:03.922Z,4.15
2022-09-10T13:44:33.339Z,4.82
2022-09-10T13:47:09.694Z,5.03
2022-09-10T13:49:52.015Z,5.80
2022-09-10T13:52:25.550Z,6.38
2022-09-10T13:54:56.025Z,5.70
2022-09-10T13:57:33.032Z,5.53
2022-09-10T14:00:14.422Z,4.70
2022-09-10T14:02:53.950Z,4.50
2022-09-10T14:05:23.455Z,3.60
2022-09-10T14:07:54.553Z,2.90
2022-09-10T14:10:23.390Z,2.30
2022-09-10T14:12:52.698Z,1.75
2022-09-10T14:15:25.528Z,1.90
2022-09-10T14:17:57.998Z,2.25
2022-09-10T14:20:25.329Z,2.38
2022-09-10T14:23:22.533Z,2.50
2022-09-10T14:26:21.818Z,2.40
2022-09-10T14:29:25.942Z,2.83
2022-09-10T14:31:54.539Z,2.85
2022-09-10T14:34:38.034Z,2.60
2022-09-10T14:37:32.658Z,2.90
2022-09-10T14:40:22.250Z,3.63
2022-09-10T14:42:50.735Z,3.67
2022-09-10T14:45:38.148Z,3.30
2022-09-10T14:48:06.804Z,3.95
2022-09-10T14:50:37.219Z,4.40
2022-09-10T14:55:33.206Z,4.03
2022-09-10T14:58:02.729Z,4.40
2022-09-10T15:00:32.862Z,4.47
2022-09-10T15:07:59.429Z,3.97
2022-09-10T15:10:29.068Z,4.20
2022-09-10T15:12:56.971Z,3.67
2022-09-10T15:15:25.463Z,3.20
2022-09-10T15:17:54.322Z,3.20
2022-09-10T15:20:27.261Z,2.25
2022-09-10T15:22:55.370Z,2.72
2022-09-10T15:25:38.400Z,2.40
2022-09-10T15:28:07.693Z,2.28
2022-09-10T15:30:37.230Z,2.30
2022-09-10T15:33:06.341Z,2.00
2022-09-10T15:35:34.905Z,2.13
2022-09-10T15:38:18.835Z,2.10
2022-09-10T15:40:55.543Z,1.90
2022-09-10T15:43:26.914Z,2.10
2022-09-10T15:45:54.775Z,1.95
2022-09-10T15:48:27.032Z,1.70
2022-09-10T15:50:56.366Z,2.17
2022-09-10T15:53:24.144Z,1.73
2022-09-10T15:55:55.193Z,1.60
2022-09-10T15:58:22.701Z,1.75
2022-09-10T16:00:50.410Z,1.90
2022-09-10T16:03:18.280Z,1.92
2022-09-10T16:05:46.444Z,1.90
2022-09-10T16:08:13.745Z,1.58
2022-09-10T16:10:41.263Z,2.17
2022-09-10T16:13:09.469Z,2.00
2022-09-10T16:15:43.075Z,2.10
2022-09-10T16:18:32.653Z,2.05
2022-09-10T16:21:09.917Z,1.73
2022-09-10T16:23:39.633Z,2.03
2022-09-10T16:26:12.732Z,2.38
2022-09-10T16:29:02.029Z,2.05
2022-09-10T16:31:32.948Z,2.13
2022-09-10T16:34:06.367Z,2.20
2022-09-10T16:36:36.989Z,2.30
2022-09-10T16:39:12.007Z,2.30
2022-09-10T16:41:42.739Z,2.25
2022-09-10T16:44:15.108Z,2.35
2022-09-10T16:46:44.124Z,2.38
2022-09-10T16:49:14.364Z,2.67
2022-09-10T16:51:44.515Z,2.72
2022-09-10T16:54:14.361Z,2.47
2022-09-10T16:56:48.477Z,2.92
2022-09-10T16:59:22.507Z,2.78
2022-09-10T17:01:53.441Z,2.35
2022-09-10T17:04:28.291Z,2.53
2022-09-10T17:06:58.809Z,3.45
2022-09-10T17:09:28.015Z,2.97
2022-09-10T17:11:55.576Z,3.35
2022-09-10T17:14:24.670Z,2.78
2022-09-10T17:16:56.843Z,2.65
2022-09-10T17:19:26.848Z,3.28
2022-09-10T17:21:58.471Z,3.67
2022-09-10T17:24:27.126Z,3.70
2022-09-10T17:26:58.452Z,3.53
2022-09-10T17:29:27.548Z,3.92
2022-09-10T17:31:55.684Z,4.38
2022-09-10T17:34:24.761Z,4.57
2022-09-10T17:36:52.336Z,4.50
2022-09-10T17:39:21.101Z,5.18
2022-09-10T17:41:50.598Z,5.70
2022-09-10T17:44:18.246Z,5.38
2022-09-10T17:46:48.387Z,6.47
2022-09-10T17:49:16.532Z,6.03
2022-09-10T17:51:44.787Z,6.78
2022-09-10T17:54:15.489Z,6.55
2022-09-10T17:56:43.965Z,6.07
2022-09-10T17:59:17.320Z,6.10
2022-09-10T18:01:46.420Z,6.47
2022-09-10T18:04:21.704Z,6.15
2022-09-10T18:06:52.232Z,6.38
2022-09-10T18:09:26.723Z,6.28
2022-09-10T18:11:57.726Z,6.10
2022-09-10T18:14:25.896Z,5.95
2022-09-10T18:16:55.851Z,7.00
2022-09-10T18:19:23.349Z,6.72
2022-09-10T18:21:51.404Z,7.05
2022-09-10T18:24:22.742Z,7.60
2022-09-10T18:26:52.277Z,8.18
2022-09-10T18:29:26.961Z,7.90
2022-09-10T18:31:59.652Z,8.05
2022-09-10T18:34:34.655Z,8.27
2022-09-10T18:37:07.129Z,8.05
2022-09-10T18:39:34.759Z,8.40
2022-09-10T18:42:04.046Z,9.13
2022-09-10T18:44:35.385Z,9.02
2022-09-10T18:47:08.997Z,8.98
2022-09-10T18:49:45.684Z,8.52
2022-09-10T18:52:17.426Z,8.23
2022-09-10T18:54:46.581Z,8.55
2022-09-10T18:57:14.978Z,8.20
2022-09-10T18:59:44.620Z,7.95
2022-09-10T19:02:18.118Z,8.52
2022-09-10T19:05:09.650Z,8.77
2022-09-10T19:07:33.896Z,8.40
2022-09-10T19:10:05.040Z,8.10
2022-09-10T19:12:39.264Z,9.32
2022-09-10T19:15:20.154Z,9.35
2022-09-10T19:17:48.379Z,9.73
2022-09-10T19:20:16.827Z,8.55
2022-09-10T19:22:44.543Z,9.40
2022-09-10T19:25:23.069Z,8.55
2022-09-10T19:27:50.516Z,8.70
2022-09-10T19:30:20.770Z,9.38
2022-09-10T19:32:56.324Z,9.40
2022-09-10T19:35:24.114Z,9.02
2022-09-10T19:37:51.458Z,10.13
2022-09-10T19:40:19.034Z,10.55
2022-09-10T19:42:47.733Z,11.77
2022-09-10T19:45:15.344Z,12.20
2022-09-10T19:47:49.247Z,13.05
2022-09-10T19:50:22.696Z,13.60
2022-09-10T19:52:50.937Z,13.77
2022-09-10T19:55:18.493Z,13.30
2022-09-10T19:57:45.766Z,14.40
2022-09-10T20:00:30.362Z,14.40
2022-09-10T20:03:07.682Z,14.52
2022-09-10T20:05:35.507Z,15.35
2022-09-10T20:08:04.871Z,15.48
2022-09-10T20:10:34.201Z,16.63
2022-09-10T20:13:02.973Z,16.73
2022-09-10T20:15:35.508Z,15.18
2022-09-10T20:18:04.030Z,15.52
2022-09-10T20:20:34.050Z,16.05
2022-09-10T20:25:36.672Z,16.10
2022-09-10T20:28:04.253Z,17.02
2022-09-10T20:30:34.470Z,16.67
2022-09-10T20:33:04.291Z,15.65
2022-09-10T20:35:33.969Z,17.00
2022-09-10T20:38:04.908Z,16.93
2022-09-10T20:40:36.589Z,16.75
2022-09-10T20:43:04.202Z,16.08
2022-09-10T20:45:34.133Z,15.95
2022-09-10T20:48:03.043Z,17.02
2022-09-10T20:50:35.191Z,16.73
2022-09-10T20:53:03.424Z,15.93
2022-09-10T20:55:33.065Z,17.02
2022-09-10T20:58:04.324Z,16.35
2022-09-10T21:00:34.913Z,17.55
2022-09-10T21:03:04.798Z,17.30
2022-09-10T21:05:34.007Z,18.10
2022-09-10T21:08:04.099Z,17.30
2022-09-10T21:10:34.898Z,16.80
2022-09-10T21:13:11.878Z,18.42
2022-09-10T21:15:39.401Z,18.35
2022-09-10T21:18:06.647Z,18.13
2022-09-10T21:20:34.114Z,18.85
2022-09-10T21:23:08.867Z,19.13
2022-09-10T21:25:36.044Z,19.42
2022-09-10T21:28:10.836Z,18.90
2022-09-10T21:30:44.403Z,18.85
2022-09-10T21:33:12.291Z,19.25
2022-09-10T21:35:48.994Z,19.95
2022-09-10T21:38:17.662Z,19.85
2022-09-10T21:40:58.617Z,19.90
2022-09-10T21:43:27.579Z,21.02
2022-09-10T21:45:55.595Z,19.13
2022-09-10T21:48:24.347Z,20.30
2022-09-10T21:51:12.216Z,20.90
2022-09-10T21:53:41.156Z,20.52
2022-09-10T21:56:17.268Z,20.70
2022-09-10T21:58:49.423Z,20.00
2022-09-10T22:01:29.072Z,21.75
2022-09-10T22:03:58.494Z,20.67
2022-09-10T22:06:35.892Z,20.55
2022-09-10T22:09:11.289Z,21.67
2022-09-10T22:11:46.239Z,20.05
2022-09-10T22:14:19.139Z,20.25
2022-09-10T22:16:46.880Z,19.77
2022-09-10T22:22:03.084Z,21.15
2022-09-10T22:24:34.953Z,21.60
2022-09-10T22:27:07.092Z,22.42
2022-09-10T22:29:34.389Z,21.30
2022-09-10T22:32:05.108Z,22.70
2022-09-10T22:34:36.046Z,22.10
2022-09-10T22:37:04.049Z,20.90
2022-09-10T22:39:32.780Z,21.50
2022-09-10T22:42:04.808Z,21.25
2022-09-10T22:44:34.894Z,21.15
2022-09-10T22:47:09.897Z,23.02
2022-09-10T22:49:37.803Z,21.77
2022-09-10T22:52:05.284Z,22.55
2022-09-10T22:54:34.766Z,22.23
2022-09-10T22:57:04.096Z,21.47
2022-09-10T22:59:37.627Z,20.63
2022-09-10T23:02:05.547Z,20.80
2022-09-10T23:04:36.779Z,20.35
2022-09-10T23:07:04.917Z,20.70
2022-09-10T23:09:33.550Z,21.02
2022-09-10T23:12:04.979Z,22.98
2022-09-10T23:14:35.130Z,22.38
2022-09-10T23:17:05.322Z,22.35
2022-09-10T23:19:33.404Z,23.67
2022-09-10T23:22:04.066Z,22.98
2022-09-10T23:24:40.967Z,22.92
2022-09-10T23:27:12.013Z,23.02
2022-09-10T23:29:39.505Z,23.60
2022-09-10T23:32:07.053Z,23.58
2022-09-10T23:34:38.524Z,25.13
2022-09-10T23:37:06.697Z,25.10
2022-09-10T23:39:39.870Z,25.10
2022-09-10T23:42:10.741Z,26.63
2022-09-10T23:44:39.164Z,26.30
2022-09-10T23:47:07.389Z,24.83
2022-09-10T23:49:34.617Z,26.42
2022-09-10T23:52:03.859Z,24.95
2022-09-10T23:54:32.549Z,26.10
2022-09-10T23:57:05.375Z,26.17
2022-09-10T23:59:34.236Z,27.38
